CYQB

Quebec / Jean Lesage International Airport

Quebec, , Canada
METAR CYQB 171500Z 06005KT 25SM FEW040 OVC072 M02/M03 A2965 RMK SC2AC6 SLP047
Observed Flight Rules
Dec-17 @ 15:00 UTC (46 minutes ago) Visual Flight Rules
Wind Visibility Clouds
60° at 5 knots 25 miles
  • Few at 4,000' AGL
  • Overcast at 7,200' AGL
Temperatures Readings
Current -2°C / 28°F
Dewpoint -3°C / 27°F
Humidity 93%
Altimeter 29.65" Hg
Pressure 1004.7 hPa
Elevation 73
METAR CYQB 171500Z 06005KT 25SM FEW040 OVC072 M02/M03 A2965 RMK SC2AC6 SLP047
Observed Flight Rules
Dec-17 @ 15:00 UTC
(46 minutes ago)
VFR
Wind Visibility
60° at 5 knots 25 miles
Clouds
  • Few at 4,000' AGL
  • Overcast at 7,200' AGL
Temperature Dewpoint
-2°C / 28°F -3°C / 27°F
Humidity Altimeter Pressure
93% 29.65" Hg 1004.7 hPa